OMDBOMAL

Guest
Details From OMDB - DUBAI INTL
To OMAL - AL AIN INTL
Flight Number -
Tags generated
Created
Modified
Stats Distance 61 nm / 114 km
Max Altitude 0 ft / 0 m
Waypoints 3
Social Downloads 0
Likes 0
Share VATSIM

Download

Looking for another format? Having issues loading an existing format? Contact us
Advertisement - Login to hide

Notes

Basic altitude profile: - Ascent Rate: 2500ft/min - Ascent Speed: 250kts - Cruise Altitude: 35000ft - Cruise Speed: 420kts - Descent Rate: 1500ft/min - Descent Speed: 250kts Options: - Use NATs: yes - Use PACOTS: yes - Use low airways: yes - Use high airways: yes

Route

OMDB ALN OMAL

ID Type Via Altitude Latitude Longitude Leg Dist Tot Dist Heading (true) Name
O OMDB APT - 0 ft / 0 m 25.25491˚ 55.36426˚ - 0 nm - DUBAI INTL
ALN VOR - 0 ft / 0 m 24.25975˚ 55.60636˚ 61 nm 61 nm 167° / 168° AL AIN VOR-DME
O OMAL APT - 0 ft / 0 m 24.26169˚ 55.60913˚ 0 nm 61 nm 52° / 52° AL AIN INTL

Altitude Profile

Advertisement - Login to hide

OMDB

Details ICAO OMDB (DXB)
Name DUBAI INTL
Region United Arab Emirates
Timezone Asia/Dubai (UTC+4.0)
Stats Elevation 62 ft / 19 m (AMSL)
Location 25.254912° 55.364260°
Runways 2
Magnetic Variation 2.068° E

METAR

OMDB 241700Z 33004KT 300V080 CAVOK 32/17 Q1005 NOSIG

Decode

TAF

TAF OMDB 241100Z 2412/2518 32014KT CAVOK BECMG 2415/2417 09005KT BECMG 2502/2504 18012KT BECMG 2508/2510 33014KT

Decode

Departure Runways

ID Width Length Bearing (true) Bearing (mag) Surface Threshold Offset Overrun Length
12L 197 ft / 60 m 13,124 ft / 4,000 m 121.49° 119.42° Asphalt 1,312 ft / 400 m 395 ft / 120 m
12R 151 ft / 46 m 13,139 ft / 4,005 m 121.48° 119.41° Asphalt 394 ft / 120 m 197 ft / 60 m
30L 151 ft / 46 m 13,139 ft / 4,005 m 301.50° 299.43° Asphalt 2,953 ft / 900 m 197 ft / 60 m
30R 197 ft / 60 m 13,124 ft / 4,000 m 301.51° 299.44° Asphalt 0 ft / 0 m 395 ft / 120 m

OMAL

Details ICAO OMAL (AAN)
Name AL AIN INTL
Region United Arab Emirates
Timezone Asia/Dubai (UTC+4.0)
Stats Elevation 869 ft / 265 m (AMSL)
Location 24.261690° 55.609131°
Runways 1
Magnetic Variation 1.866° E

METAR

OMAL 241700Z 36013KT CAVOK 35/11 Q1006 BECMG 06006KT

Decode

TAF

Not found

Destination Runways

ID Width Length Bearing (true) Bearing (mag) Surface Threshold Offset Overrun Length
01 148 ft / 45 m 13,176 ft / 4,016 m 7.40° 5.53° Asphalt 0 ft / 0 m 1,312 ft / 400 m
19 148 ft / 45 m 13,176 ft / 4,016 m 187.40° 185.53° Asphalt 0 ft / 0 m 1,080 ft / 329 m

Popular Alternatives